sensor_id;sensor_type;location;lat;lon;timestamp;pressure;altitude;pressure_sealevel;temperature;humidity
49397;BME280;35615;41.410;2.194;2023-02-25T00:01:11;100575.81;;;15.58;43.15
49397;BME280;35615;41.410;2.194;2023-02-25T00:03:39;100573.44;;;15.72;42.78
49397;BME280;35615;41.410;2.194;2023-02-25T00:06:23;100567.31;;;15.68;43.31
49397;BME280;35615;41.410;2.194;2023-02-25T00:09:06;100573.44;;;15.70;43.17
49397;BME280;35615;41.410;2.194;2023-02-25T00:11:39;100562.16;;;15.71;42.96
49397;BME280;35615;41.410;2.194;2023-02-25T00:14:12;100565.63;;;15.72;43.38
49397;BME280;35615;41.410;2.194;2023-02-25T00:16:40;100566.59;;;15.77;42.99
49397;BME280;35615;41.410;2.194;2023-02-25T00:19:08;100560.50;;;15.75;43.63
49397;BME280;35615;41.410;2.194;2023-02-25T00:21:44;100556.97;;;15.73;43.25
49397;BME280;35615;41.410;2.194;2023-02-25T00:24:14;100560.34;;;15.64;43.67
49397;BME280;35615;41.410;2.194;2023-02-25T00:26:44;100556.91;;;15.68;43.70
49397;BME280;35615;41.410;2.194;2023-02-25T00:29:13;100552.47;;;15.62;43.81
49397;BME280;35615;41.410;2.194;2023-02-25T00:31:45;100554.19;;;15.60;43.60
49397;BME280;35615;41.410;2.194;2023-02-25T00:34:16;100548.94;;;15.59;43.92
49397;BME280;35615;41.410;2.194;2023-02-25T00:36:44;100547.25;;;15.62;43.75
49397;BME280;35615;41.410;2.194;2023-02-25T00:39:27;100542.84;;;15.58;44.31
49397;BME280;35615;41.410;2.194;2023-02-25T00:42:10;100536.91;;;15.64;43.99
49397;BME280;35615;41.410;2.194;2023-02-25T00:44:45;100523.72;;;15.55;44.45
49397;BME280;35615;41.410;2.194;2023-02-25T00:47:17;100530.66;;;15.56;44.28
49397;BME280;35615;41.410;2.194;2023-02-25T00:49:48;100532.34;;;15.52;44.31
49397;BME280;35615;41.410;2.194;2023-02-25T00:52:15;100527.97;;;15.50;44.30
49397;BME280;35615;41.410;2.194;2023-02-25T00:55:09;100521.09;;;15.53;44.21
49397;BME280;35615;41.410;2.194;2023-02-25T00:57:45;100523.59;;;15.49;44.41
49397;BME280;35615;41.410;2.194;2023-02-25T01:00:15;100518.38;;;15.46;44.53
49397;BME280;35615;41.410;2.194;2023-02-25T01:02:45;100516.66;;;15.48;44.32
49397;BME280;35615;41.410;2.194;2023-02-25T01:05:18;100515.63;;;15.38;44.80
49397;BME280;35615;41.410;2.194;2023-02-25T01:07:56;100509.47;;;15.31;44.97
49397;BME280;35615;41.410;2.194;2023-02-25T01:10:28;100507.59;;;15.21;44.96
49397;BME280;35615;41.410;2.194;2023-02-25T01:12:58;100506.91;;;15.34;44.12
49397;BME280;35615;41.410;2.194;2023-02-25T01:15:33;100503.44;;;15.34;44.19
49397;BME280;35615;41.410;2.194;2023-02-25T01:18:29;100502.47;;;15.27;44.44
49397;BME280;35615;41.410;2.194;2023-02-25T01:20:57;100501.56;;;15.25;43.96
49397;BME280;35615;41.410;2.194;2023-02-25T01:23:28;100499.88;;;15.27;44.27
49397;BME280;35615;41.410;2.194;2023-02-25T01:25:59;100500.72;;;15.26;44.25
49397;BME280;35615;41.410;2.194;2023-02-25T01:28:35;100491.09;;;15.19;44.54
49397;BME280;35615;41.410;2.194;2023-02-25T01:31:03;100488.41;;;15.16;44.46
49397;BME280;35615;41.410;2.194;2023-02-25T01:33:34;100482.41;;;15.19;44.25
49397;BME280;35615;41.410;2.194;2023-02-25T01:36:05;100489.19;;;15.09;44.08
49397;BME280;35615;41.410;2.194;2023-02-25T01:38:32;100491.72;;;15.06;44.43
49397;BME280;35615;41.410;2.194;2023-02-25T01:41:03;100489.91;;;15.00;44.43
49397;BME280;35615;41.410;2.194;2023-02-25T01:43:30;100480.59;;;15.16;43.79
49397;BME280;35615;41.410;2.194;2023-02-25T01:46:05;100479.59;;;15.06;44.08
49397;BME280;35615;41.410;2.194;2023-02-25T01:48:40;100481.41;;;15.10;44.02
49397;BME280;35615;41.410;2.194;2023-02-25T01:51:24;100480.50;;;15.08;43.94
49397;BME280;35615;41.410;2.194;2023-02-25T01:54:18;100468.44;;;15.15;43.89
49397;BME280;35615;41.410;2.194;2023-02-25T01:56:52;100473.66;;;15.15;44.00
49397;BME280;35615;41.410;2.194;2023-02-25T01:59:24;100472.81;;;15.16;43.83
49397;BME280;35615;41.410;2.194;2023-02-25T02:01:59;100466.81;;;15.20;43.57
49397;BME280;35615;41.410;2.194;2023-02-25T02:04:30;100465.78;;;15.09;43.58
49397;BME280;35615;41.410;2.194;2023-02-25T02:07:10;100462.41;;;15.16;43.51
49397;BME280;35615;41.410;2.194;2023-02-25T02:09:41;100456.28;;;15.13;43.50
49397;BME280;35615;41.410;2.194;2023-02-25T02:12:33;100457.13;;;15.11;43.54
49397;BME280;35615;41.410;2.194;2023-02-25T02:15:13;100453.72;;;15.16;43.13
49397;BME280;35615;41.410;2.194;2023-02-25T02:18:01;100451.06;;;15.13;43.54
49397;BME280;35615;41.410;2.194;2023-02-25T02:35:01;100435.44;;;15.09;42.61
49397;BME280;35615;41.410;2.194;2023-02-25T02:37:58;100425.06;;;15.14;42.79
49397;BME280;35615;41.410;2.194;2023-02-25T02:41:14;100426.06;;;15.22;42.77
49397;BME280;35615;41.410;2.194;2023-02-25T02:43:55;100418.28;;;15.25;42.74
49397;BME280;35615;41.410;2.194;2023-02-25T02:46:33;100420.91;;;15.25;42.59
49397;BME280;35615;41.410;2.194;2023-02-25T02:49:30;100416.44;;;15.17;42.95
49397;BME280;35615;41.410;2.194;2023-02-25T02:52:18;100419.16;;;15.24;42.86
49397;BME280;35615;41.410;2.194;2023-02-25T02:55:14;100413.06;;;15.22;42.78
49397;BME280;35615;41.410;2.194;2023-02-25T02:57:42;100411.31;;;15.23;42.70
49397;BME280;35615;41.410;2.194;2023-02-25T03:00:31;100406.16;;;15.26;42.70
49397;BME280;35615;41.410;2.194;2023-02-25T03:03:14;100413.09;;;15.27;42.99
49397;BME280;35615;41.410;2.194;2023-02-25T03:05:45;100408.78;;;15.29;42.81
49397;BME280;35615;41.410;2.194;2023-02-25T03:08:26;100407.09;;;15.31;42.69
49397;BME280;35615;41.410;2.194;2023-02-25T03:10:57;100401.94;;;15.34;42.60
49397;BME280;35615;41.410;2.194;2023-02-25T03:13:24;100390.69;;;15.38;42.54
49397;BME280;35615;41.410;2.194;2023-02-25T03:15:57;100395.06;;;15.40;42.43
49397;BME280;35615;41.410;2.194;2023-02-25T03:18:34;100401.09;;;15.38;42.57
49397;BME280;35615;41.410;2.194;2023-02-25T03:21:17;100394.16;;;15.35;42.70
49397;BME280;35615;41.410;2.194;2023-02-25T03:24:05;100389.84;;;15.39;42.56
49397;BME280;35615;41.410;2.194;2023-02-25T03:26:42;100385.56;;;15.41;42.42
49397;BME280;35615;41.410;2.194;2023-02-25T03:29:21;100381.97;;;15.33;42.46
49397;BME280;35615;41.410;2.194;2023-02-25T03:34:29;100383.72;;;15.34;42.57
49397;BME280;35615;41.410;2.194;2023-02-25T03:37:10;100382.81;;;15.30;42.71
49397;BME280;35615;41.410;2.194;2023-02-25T03:39:42;100377.53;;;15.26;42.77
49397;BME280;35615;41.410;2.194;2023-02-25T03:42:20;100379.13;;;15.15;42.72
49397;BME280;35615;41.410;2.194;2023-02-25T03:44:56;100382.69;;;15.23;42.77
49397;BME280;35615;41.410;2.194;2023-02-25T03:47:30;100380.94;;;15.19;42.95
49397;BME280;35615;41.410;2.194;2023-02-25T03:50:13;100379.16;;;15.18;42.72
49397;BME280;35615;41.410;2.194;2023-02-25T03:52:46;100374.00;;;15.19;42.42
49397;BME280;35615;41.410;2.194;2023-02-25T03:55:41;100372.16;;;15.12;42.78
49397;BME280;35615;41.410;2.194;2023-02-25T03:58:17;100372.16;;;15.14;42.99
49397;BME280;35615;41.410;2.194;2023-02-25T04:00:53;100378.09;;;15.05;42.96
49397;BME280;35615;41.410;2.194;2023-02-25T04:03:30;100371.16;;;15.04;43.00
49397;BME280;35615;41.410;2.194;2023-02-25T04:06:04;100369.41;;;15.03;42.99
49397;BME280;35615;41.410;2.194;2023-02-25T04:08:36;100361.56;;;14.98;43.12
49397;BME280;35615;41.410;2.194;2023-02-25T04:11:06;100368.44;;;14.96;43.05
49397;BME280;35615;41.410;2.194;2023-02-25T04:13:39;100368.44;;;14.95;42.99
49397;BME280;35615;41.410;2.194;2023-02-25T04:16:09;100364.94;;;14.93;43.16
49397;BME280;35615;41.410;2.194;2023-02-25T04:18:38;100365.66;;;14.84;43.39
49397;BME280;35615;41.410;2.194;2023-02-25T04:21:35;100356.09;;;14.80;43.55
49397;BME280;35615;41.410;2.194;2023-02-25T04:24:14;100350.00;;;14.79;43.39
49397;BME280;35615;41.410;2.194;2023-02-25T04:26:43;100347.34;;;14.75;43.17
49397;BME280;35615;41.410;2.194;2023-02-25T04:29:16;100350.00;;;14.78;43.27
49397;BME280;35615;41.410;2.194;2023-02-25T04:31:44;100351.75;;;14.79;43.36
49397;BME280;35615;41.410;2.194;2023-02-25T04:34:12;100352.63;;;14.81;43.42
49397;BME280;35615;41.410;2.194;2023-02-25T04:36:39;100354.28;;;14.74;43.56
49397;BME280;35615;41.410;2.194;2023-02-25T04:39:19;100350.84;;;14.75;43.43
49397;BME280;35615;41.410;2.194;2023-02-25T04:41:48;100341.34;;;14.79;43.52
49397;BME280;35615;41.410;2.194;2023-02-25T04:44:28;100349.97;;;14.75;43.55
49397;BME280;35615;41.410;2.194;2023-02-25T04:46:55;100344.00;;;14.83;43.23
49397;BME280;35615;41.410;2.194;2023-02-25T04:49:28;100348.34;;;14.85;43.41
49397;BME280;35615;41.410;2.194;2023-02-25T04:52:00;100343.06;;;14.78;43.65
49397;BME280;35615;41.410;2.194;2023-02-25T04:54:33;100344.81;;;14.81;43.41
49397;BME280;35615;41.410;2.194;2023-02-25T04:57:02;100341.38;;;14.82;43.22
49397;BME280;35615;41.410;2.194;2023-02-25T04:59:29;100349.19;;;14.83;43.15
49397;BME280;35615;41.410;2.194;2023-02-25T05:02:02;100347.53;;;14.87;43.25
49397;BME280;35615;41.410;2.194;2023-02-25T05:04:37;100342.25;;;14.84;43.41
49397;BME280;35615;41.410;2.194;2023-02-25T05:07:09;100342.19;;;14.76;43.35
49397;BME280;35615;41.410;2.194;2023-02-25T05:09:40;100338.69;;;14.76;43.68
49397;BME280;35615;41.410;2.194;2023-02-25T05:12:13;100341.31;;;14.77;43.58
49397;BME280;35615;41.410;2.194;2023-02-25T05:14:46;100339.44;;;14.69;43.61
49397;BME280;35615;41.410;2.194;2023-02-25T05:17:28;100332.50;;;14.68;43.88
49397;BME280;35615;41.410;2.194;2023-02-25T05:20:03;100337.66;;;14.63;43.61
49397;BME280;35615;41.410;2.194;2023-02-25T05:22:41;100339.41;;;14.64;43.76
49397;BME280;35615;41.410;2.194;2023-02-25T05:25:10;100331.50;;;14.58;43.95
49397;BME280;35615;41.410;2.194;2023-02-25T05:27:51;100326.28;;;14.58;43.87
49397;BME280;35615;41.410;2.194;2023-02-25T05:30:33;100322.72;;;14.51;44.25
49397;BME280;35615;41.410;2.194;2023-02-25T05:33:14;100320.13;;;14.51;44.17
49397;BME280;35615;41.410;2.194;2023-02-25T05:35:44;100310.50;;;14.46;44.20
49397;BME280;35615;41.410;2.194;2023-02-25T05:38:20;100307.81;;;14.41;44.40
49397;BME280;35615;41.410;2.194;2023-02-25T05:40:47;100307.53;;;14.24;44.98
49397;BME280;35615;41.410;2.194;2023-02-25T05:43:18;100318.84;;;14.28;44.81
49397;BME280;35615;41.410;2.194;2023-02-25T05:45:57;100317.19;;;14.32;44.79
49397;BME280;35615;41.410;2.194;2023-02-25T05:48:36;100322.41;;;14.32;44.35
49397;BME280;35615;41.410;2.194;2023-02-25T05:51:16;100317.13;;;14.29;44.55
49397;BME280;35615;41.410;2.194;2023-02-25T05:53:55;100311.13;;;14.31;44.46
49397;BME280;35615;41.410;2.194;2023-02-25T05:56:28;100317.91;;;14.23;44.44
49397;BME280;35615;41.410;2.194;2023-02-25T05:58:58;100332.72;;;14.29;44.26
49397;BME280;35615;41.410;2.194;2023-02-25T06:01:32;100328.28;;;14.21;44.73
49397;BME280;35615;41.410;2.194;2023-02-25T06:04:11;100327.41;;;14.19;44.79
49397;BME280;35615;41.410;2.194;2023-02-25T06:06:47;100326.53;;;14.19;44.82
49397;BME280;35615;41.410;2.194;2023-02-25T06:09:25;100334.34;;;14.20;44.68
49397;BME280;35615;41.410;2.194;2023-02-25T06:11:58;100334.22;;;14.14;44.88
49397;BME280;35615;41.410;2.194;2023-02-25T06:14:37;100323.88;;;14.17;44.86
49397;BME280;35615;41.410;2.194;2023-02-25T06:17:11;100324.69;;;14.15;44.69
49397;BME280;35615;41.410;2.194;2023-02-25T06:19:50;100329.81;;;14.09;44.89
49397;BME280;35615;41.410;2.194;2023-02-25T06:22:21;100316.06;;;14.16;44.72
49397;BME280;35615;41.410;2.194;2023-02-25T06:25:14;100310.81;;;14.13;45.47
49397;BME280;35615;41.410;2.194;2023-02-25T06:27:44;100315.13;;;14.12;45.09
49397;BME280;35615;41.410;2.194;2023-02-25T06:30:28;100317.69;;;14.08;45.44
49397;BME280;35615;41.410;2.194;2023-02-25T06:33:02;100315.88;;;14.05;45.26
49397;BME280;35615;41.410;2.194;2023-02-25T06:35:42;100306.31;;;14.03;45.36
49397;BME280;35615;41.410;2.194;2023-02-25T06:38:15;100297.66;;;14.04;45.47
49397;BME280;35615;41.410;2.194;2023-02-25T06:40:56;100299.41;;;14.05;45.23
49397;BME280;35615;41.410;2.194;2023-02-25T06:43:27;100299.34;;;14.00;45.44
49397;BME280;35615;41.410;2.194;2023-02-25T06:46:14;100304.63;;;14.05;45.75
49397;BME280;35615;41.410;2.194;2023-02-25T06:49:00;100298.31;;;13.90;45.86
49397;BME280;35615;41.410;2.194;2023-02-25T06:51:27;100298.47;;;13.98;45.45
49397;BME280;35615;41.410;2.194;2023-02-25T06:53:57;100296.81;;;14.05;45.22
49397;BME280;35615;41.410;2.194;2023-02-25T06:56:27;100296.84;;;14.06;45.26
49397;BME280;35615;41.410;2.194;2023-02-25T06:59:07;100289.91;;;14.05;45.26
49397;BME280;35615;41.410;2.194;2023-02-25T07:01:53;100296.03;;;14.09;45.38
49397;BME280;35615;41.410;2.194;2023-02-25T07:04:55;100303.03;;;14.14;45.25
49397;BME280;35615;41.410;2.194;2023-02-25T07:07:37;100307.38;;;14.15;45.29
49397;BME280;35615;41.410;2.194;2023-02-25T07:10:19;100306.56;;;14.18;45.25
49397;BME280;35615;41.410;2.194;2023-02-25T07:12:59;100310.84;;;14.14;45.27
49397;BME280;35615;41.410;2.194;2023-02-25T07:15:32;100317.81;;;14.18;44.90
49397;BME280;35615;41.410;2.194;2023-02-25T07:18:12;100328.44;;;14.31;44.53
49397;BME280;35615;41.410;2.194;2023-02-25T07:21:04;100335.38;;;14.30;44.63
49397;BME280;35615;41.410;2.194;2023-02-25T07:23:53;100343.25;;;14.38;44.47
49397;BME280;35615;41.410;2.194;2023-02-25T07:26:29;100341.63;;;14.41;44.44
49397;BME280;35615;41.410;2.194;2023-02-25T07:29:04;100352.13;;;14.49;44.18
49397;BME280;35615;41.410;2.194;2023-02-25T07:31:42;100353.09;;;14.54;44.12
49397;BME280;35615;41.410;2.194;2023-02-25T07:34:14;100360.97;;;14.60;44.24
49397;BME280;35615;41.410;2.194;2023-02-25T07:36:57;100356.66;;;14.62;44.24
49397;BME280;35615;41.410;2.194;2023-02-25T07:39:44;100363.72;;;14.68;44.12
49397;BME280;35615;41.410;2.194;2023-02-25T07:42:19;100361.09;;;14.68;44.33
49397;BME280;35615;41.410;2.194;2023-02-25T07:44:47;100365.44;;;14.67;44.09
49397;BME280;35615;41.410;2.194;2023-02-25T07:47:27;100361.06;;;14.65;44.13
49397;BME280;35615;41.410;2.194;2023-02-25T07:50:00;100357.59;;;14.64;44.08
49397;BME280;35615;41.410;2.194;2023-02-25T07:52:36;100347.22;;;14.66;44.00
49397;BME280;35615;41.410;2.194;2023-02-25T07:55:14;100350.84;;;14.75;44.06
49397;BME280;35615;41.410;2.194;2023-02-25T07:57:54;100354.41;;;14.83;43.91
49397;BME280;35615;41.410;2.194;2023-02-25T08:03:24;100344.91;;;14.86;43.80
49397;BME280;35615;41.410;2.194;2023-02-25T08:05:54;100343.19;;;14.86;43.36
49397;BME280;35615;41.410;2.194;2023-02-25T08:08:23;100332.81;;;14.88;43.44
49397;BME280;35615;41.410;2.194;2023-02-25T08:10:57;100337.91;;;14.83;43.67
49397;BME280;35615;41.410;2.194;2023-02-25T08:13:35;100330.91;;;14.76;43.59
49397;BME280;35615;41.410;2.194;2023-02-25T08:16:12;100338.78;;;14.83;43.71
49397;BME280;35615;41.410;2.194;2023-02-25T08:18:41;100336.22;;;14.85;45.16
49397;BME280;35615;41.410;2.194;2023-02-25T08:21:18;100340.63;;;14.89;44.67
49397;BME280;35615;41.410;2.194;2023-02-25T08:23:52;100338.91;;;14.93;44.75
49397;BME280;35615;41.410;2.194;2023-02-25T08:26:21;100332.94;;;14.97;44.13
49397;BME280;35615;41.410;2.194;2023-02-25T08:28:58;100341.56;;;14.96;44.31
49397;BME280;35615;41.410;2.194;2023-02-25T08:31:31;100333.56;;;14.80;43.40
49397;BME280;35615;41.410;2.194;2023-02-25T08:34:08;100331.59;;;14.64;44.08
49397;BME280;35615;41.410;2.194;2023-02-25T08:36:43;100335.31;;;14.83;42.90
49397;BME280;35615;41.410;2.194;2023-02-25T08:39:11;100323.97;;;14.75;42.70
49397;BME280;35615;41.410;2.194;2023-02-25T08:41:45;100319.47;;;14.65;43.17
49397;BME280;35615;41.410;2.194;2023-02-25T08:44:19;100319.38;;;14.60;42.81
49397;BME280;35615;41.410;2.194;2023-02-25T08:46:57;100322.84;;;14.61;42.97
49397;BME280;35615;41.410;2.194;2023-02-25T08:49:38;100318.50;;;14.60;42.85
49397;BME280;35615;41.410;2.194;2023-02-25T08:52:20;100322.94;;;14.64;43.01
49397;BME280;35615;41.410;2.194;2023-02-25T08:54:50;100324.84;;;14.77;42.81
49397;BME280;35615;41.410;2.194;2023-02-25T08:57:22;100325.41;;;14.58;43.42
49397;BME280;35615;41.410;2.194;2023-02-25T08:59:55;100320.38;;;14.68;42.70
49397;BME280;35615;41.410;2.194;2023-02-25T09:02:39;100328.41;;;14.85;42.34
49397;BME280;35615;41.410;2.194;2023-02-25T09:05:08;100322.44;;;14.91;42.31
49397;BME280;35615;41.410;2.194;2023-02-25T09:07:50;100321.56;;;14.92;42.58
49397;BME280;35615;41.410;2.194;2023-02-25T09:10:26;100323.34;;;14.94;42.58
49397;BME280;35615;41.410;2.194;2023-02-25T09:13:21;100318.25;;;15.02;42.57
49397;BME280;35615;41.410;2.194;2023-02-25T09:16:00;100311.34;;;15.07;42.45
49397;BME280;35615;41.410;2.194;2023-02-25T09:18:28;100304.50;;;15.10;42.12
49397;BME280;35615;41.410;2.194;2023-02-25T09:21:02;100305.34;;;15.08;42.49
49397;BME280;35615;41.410;2.194;2023-02-25T09:23:30;100305.41;;;15.16;42.22
49397;BME280;35615;41.410;2.194;2023-02-25T09:26:16;100299.41;;;15.21;42.56
49397;BME280;35615;41.410;2.194;2023-02-25T09:28:59;100297.81;;;15.31;42.02
49397;BME280;35615;41.410;2.194;2023-02-25T09:31:36;100299.66;;;15.41;41.79
49397;BME280;35615;41.410;2.194;2023-02-25T09:34:09;100296.25;;;15.50;42.13
49397;BME280;35615;41.410;2.194;2023-02-25T09:36:59;100298.06;;;15.57;41.92
49397;BME280;35615;41.410;2.194;2023-02-25T09:39:33;100292.09;;;15.62;42.04
49397;BME280;35615;41.410;2.194;2023-02-25T09:42:15;100298.13;;;15.60;42.20
49397;BME280;35615;41.410;2.194;2023-02-25T09:44:44;100292.16;;;15.70;42.12
49397;BME280;35615;41.410;2.194;2023-02-25T09:47:26;100293.06;;;15.74;41.92
49397;BME280;35615;41.410;2.194;2023-02-25T09:50:11;100295.66;;;15.74;42.88
49397;BME280;35615;41.410;2.194;2023-02-25T09:53:12;100294.84;;;15.78;41.55
49397;BME280;35615;41.410;2.194;2023-02-25T09:55:39;100294.94;;;15.85;41.67
49397;BME280;35615;41.410;2.194;2023-02-25T10:06:50;100302.03;;;16.02;41.08
49397;BME280;35615;41.410;2.194;2023-02-25T10:09:28;100296.81;;;16.05;41.38
49397;BME280;35615;41.410;2.194;2023-02-25T10:15:25;100289.78;;;15.94;41.24
49397;BME280;35615;41.410;2.194;2023-02-25T10:24:42;100292.38;;;15.90;40.94
49397;BME280;35615;41.410;2.194;2023-02-25T10:27:48;100292.38;;;15.94;40.96
49397;BME280;35615;41.410;2.194;2023-02-25T10:30:27;100298.44;;;15.90;41.08
49397;BME280;35615;41.410;2.194;2023-02-25T10:33:15;100293.34;;;16.01;40.70
49397;BME280;35615;41.410;2.194;2023-02-25T10:36:01;100291.53;;;15.95;40.63
49397;BME280;35615;41.410;2.194;2023-02-25T10:38:46;100289.88;;;16.05;40.67
49397;BME280;35615;41.410;2.194;2023-02-25T10:41:40;100292.56;;;16.14;40.45
49397;BME280;35615;41.410;2.194;2023-02-25T10:44:15;100291.69;;;16.14;40.34
49397;BME280;35615;41.410;2.194;2023-02-25T10:47:05;100287.34;;;16.14;40.16
49397;BME280;35615;41.410;2.194;2023-02-25T10:49:38;100293.59;;;16.32;40.27
49397;BME280;35615;41.410;2.194;2023-02-25T10:52:17;100291.88;;;16.35;40.07
49397;BME280;35615;41.410;2.194;2023-02-25T10:54:49;100285.84;;;16.44;39.92
49397;BME280;35615;41.410;2.194;2023-02-25T10:57:27;100288.41;;;16.38;40.19
49397;BME280;35615;41.410;2.194;2023-02-25T11:00:04;100288.41;;;16.39;40.21
49397;BME280;35615;41.410;2.194;2023-02-25T11:02:39;100289.19;;;16.24;40.07
49397;BME280;35615;41.410;2.194;2023-02-25T11:05:36;100284.03;;;16.31;39.96
49397;BME280;35615;41.410;2.194;2023-02-25T11:08:28;100279.63;;;16.28;40.08
49397;BME280;35615;41.410;2.194;2023-02-25T11:11:23;100273.69;;;16.47;39.76
49397;BME280;35615;41.410;2.194;2023-02-25T11:14:15;100278.97;;;16.53;39.70
49397;BME280;35615;41.410;2.194;2023-02-25T11:16:44;100270.28;;;16.61;40.11
49397;BME280;35615;41.410;2.194;2023-02-25T11:19:28;100272.03;;;16.59;40.09
49397;BME280;35615;41.410;2.194;2023-02-25T11:21:58;100268.56;;;16.60;39.98
49397;BME280;35615;41.410;2.194;2023-02-25T11:24:35;100270.34;;;16.64;39.77
49397;BME280;35615;41.410;2.194;2023-02-25T11:27:06;100261.69;;;16.71;39.10
49397;BME280;35615;41.410;2.194;2023-02-25T11:29:36;100265.22;;;16.76;39.04
49397;BME280;35615;41.410;2.194;2023-02-25T11:32:19;100267.84;;;16.82;38.59
49397;BME280;35615;41.410;2.194;2023-02-25T11:34:59;100266.97;;;16.84;38.83
49397;BME280;35615;41.410;2.194;2023-02-25T11:37:44;100262.69;;;16.94;38.74
49397;BME280;35615;41.410;2.194;2023-02-25T11:40:28;100263.59;;;17.04;38.56
49397;BME280;35615;41.410;2.194;2023-02-25T11:43:19;100256.63;;;17.04;38.26
49397;BME280;35615;41.410;2.194;2023-02-25T11:52:21;100250.63;;;17.28;37.39
49397;BME280;35615;41.410;2.194;2023-02-25T11:54:33;100256.75;;;17.50;37.64
49397;BME280;35615;41.410;2.194;2023-02-25T11:57:16;100252.41;;;17.49;37.74
49397;BME280;35615;41.410;2.194;2023-02-25T12:00:05;100240.25;;;17.68;37.19
49397;BME280;35615;41.410;2.194;2023-02-25T12:06:31;100235.06;;;17.83;36.97
49397;BME280;35615;41.410;2.194;2023-02-25T12:12:09;100229.84;;;18.09;36.63
49397;BME280;35615;41.410;2.194;2023-02-25T12:17:52;100222.88;;;18.13;37.41
49397;BME280;35615;41.410;2.194;2023-02-25T12:20:29;100224.63;;;18.11;37.49
49397;BME280;35615;41.410;2.194;2023-02-25T12:39:03;100211.53;;;17.95;35.80
49397;BME280;35615;41.410;2.194;2023-02-25T12:51:18;100191.50;;;18.05;35.54
49397;BME280;35615;41.410;2.194;2023-02-25T12:56:59;100188.03;;;18.00;35.48
49397;BME280;35615;41.410;2.194;2023-02-25T13:14:57;100166.22;;;18.22;35.88
49397;BME280;35615;41.410;2.194;2023-02-25T13:23:44;100166.25;;;17.55;36.09
49397;BME280;35615;41.410;2.194;2023-02-25T13:32:18;100141.88;;;17.91;36.21
49397;BME280;35615;41.410;2.194;2023-02-25T13:46:57;100138.38;;;17.47;36.06
49397;BME280;35615;41.410;2.194;2023-02-25T13:50:04;100136.59;;;16.98;35.48
49397;BME280;35615;41.410;2.194;2023-02-25T13:56:06;100130.53;;;17.60;34.53
49397;BME280;35615;41.410;2.194;2023-02-25T14:07:24;100112.16;;;18.23;32.04
49397;BME280;35615;41.410;2.194;2023-02-25T14:10:24;100121.66;;;18.47;31.23
49397;BME280;35615;41.410;2.194;2023-02-25T14:21:42;100107.66;;;18.66;30.44
49397;BME280;35615;41.410;2.194;2023-02-25T14:33:41;100099.63;;;19.00;28.94
49397;BME280;35615;41.410;2.194;2023-02-25T14:36:26;100103.66;;;19.45;28.45
49397;BME280;35615;41.410;2.194;2023-02-25T14:41:52;100101.06;;;19.42;28.71
49397;BME280;35615;41.410;2.194;2023-02-25T14:44:42;100095.16;;;19.12;28.51
49397;BME280;35615;41.410;2.194;2023-02-25T14:47:31;100102.66;;;19.63;28.69
49397;BME280;35615;41.410;2.194;2023-02-25T14:50:24;100096.59;;;19.53;28.41
49397;BME280;35615;41.410;2.194;2023-02-25T15:22:20;100117.41;;;18.29;27.20
49397;BME280;35615;41.410;2.194;2023-02-25T15:25:28;100098.13;;;18.47;27.97
49397;BME280;35615;41.410;2.194;2023-02-25T15:27:58;100096.47;;;18.29;27.80
49397;BME280;35615;41.410;2.194;2023-02-25T15:31:05;100094.66;;;18.43;27.58
49397;BME280;35615;41.410;2.194;2023-02-25T15:33:53;100092.84;;;18.59;28.47
49397;BME280;35615;41.410;2.194;2023-02-25T15:36:43;100088.47;;;18.59;27.14
49397;BME280;35615;41.410;2.194;2023-02-25T15:42:13;100087.53;;;18.80;27.88
49397;BME280;35615;41.410;2.194;2023-02-25T15:45:51;100085.75;;;18.87;27.63
49397;BME280;35615;41.410;2.194;2023-02-25T15:58:55;100087.34;;;19.06;28.18
49397;BME280;35615;41.410;2.194;2023-02-25T16:01:36;100080.22;;;19.25;27.60
49397;BME280;35615;41.410;2.194;2023-02-25T16:04:39;100081.97;;;19.26;28.24
49397;BME280;35615;41.410;2.194;2023-02-25T16:07:12;100081.00;;;19.36;28.24
49397;BME280;35615;41.410;2.194;2023-02-25T16:09:54;100084.50;;;19.35;28.26
49397;BME280;35615;41.410;2.194;2023-02-25T16:12:23;100082.84;;;19.24;29.21
49397;BME280;35615;41.410;2.194;2023-02-25T16:14:52;100078.50;;;19.24;28.95
49397;BME280;35615;41.410;2.194;2023-02-25T16:17:39;100079.41;;;19.17;28.98
49397;BME280;35615;41.410;2.194;2023-02-25T16:20:11;100081.38;;;18.88;29.06
49397;BME280;35615;41.410;2.194;2023-02-25T16:22:45;100076.25;;;18.68;29.41
49397;BME280;35615;41.410;2.194;2023-02-25T16:25:16;100080.66;;;18.64;29.77
49397;BME280;35615;41.410;2.194;2023-02-25T16:28:15;100075.53;;;18.34;29.98
49397;BME280;35615;41.410;2.194;2023-02-25T16:31:00;100078.97;;;18.45;30.00
49397;BME280;35615;41.410;2.194;2023-02-25T16:39:05;100082.41;;;18.54;30.31
49397;BME280;35615;41.410;2.194;2023-02-25T16:41:33;100078.88;;;18.60;30.56
49397;BME280;35615;41.410;2.194;2023-02-25T16:44:05;100080.75;;;18.35;30.68
49397;BME280;35615;41.410;2.194;2023-02-25T16:46:36;100086.13;;;17.98;30.64
49397;BME280;35615;41.410;2.194;2023-02-25T16:51:56;100093.97;;;17.89;31.07
49397;BME280;35615;41.410;2.194;2023-02-25T16:54:36;100096.59;;;17.73;31.26
49397;BME280;35615;41.410;2.194;2023-02-25T16:57:05;100100.06;;;17.90;31.10
49397;BME280;35615;41.410;2.194;2023-02-25T16:59:38;100100.06;;;17.84;31.49
49397;BME280;35615;41.410;2.194;2023-02-25T17:04:48;100094.00;;;17.69;31.62
49397;BME280;35615;41.410;2.194;2023-02-25T17:07:18;100098.34;;;17.81;31.40
49397;BME280;35615;41.410;2.194;2023-02-25T17:10:02;100094.88;;;17.76;31.13
49397;BME280;35615;41.410;2.194;2023-02-25T17:12:42;100101.81;;;17.86;31.34
49397;BME280;35615;41.410;2.194;2023-02-25T17:15:27;100096.59;;;17.86;31.14